sensor_id;sensor_type;location;lat;lon;timestamp;P1;durP1;ratioP1;P2;durP2;ratioP2
26201;SDS011;13944;28.562;77.188;2023-01-24T00:00:36;277.37;;;183.20;;
26201;SDS011;13944;28.562;77.188;2023-01-24T00:03:02;275.17;;;180.97;;
26201;SDS011;13944;28.562;77.188;2023-01-24T00:05:29;275.43;;;179.03;;
26201;SDS011;13944;28.562;77.188;2023-01-24T00:07:55;262.67;;;174.53;;
26201;SDS011;13944;28.562;77.188;2023-01-24T00:10:22;273.90;;;180.73;;
26201;SDS011;13944;28.562;77.188;2023-01-24T00:12:49;270.07;;;179.83;;
26201;SDS011;13944;28.562;77.188;2023-01-24T00:15:16;276.80;;;181.70;;
26201;SDS011;13944;28.562;77.188;2023-01-24T00:17:43;273.10;;;171.77;;
26201;SDS011;13944;28.562;77.188;2023-01-24T00:20:09;258.20;;;167.73;;
26201;SDS011;13944;28.562;77.188;2023-01-24T00:22:36;254.70;;;165.70;;
26201;SDS011;13944;28.562;77.188;2023-01-24T00:25:02;249.77;;;159.27;;
26201;SDS011;13944;28.562;77.188;2023-01-24T00:27:29;230.97;;;152.57;;
26201;SDS011;13944;28.562;77.188;2023-01-24T00:29:57;248.30;;;152.77;;
26201;SDS011;13944;28.562;77.188;2023-01-24T00:32:23;226.60;;;145.63;;
26201;SDS011;13944;28.562;77.188;2023-01-24T00:34:50;216.73;;;142.23;;
26201;SDS011;13944;28.562;77.188;2023-01-24T00:37:16;213.60;;;135.43;;
26201;SDS011;13944;28.562;77.188;2023-01-24T00:39:43;210.90;;;134.50;;
26201;SDS011;13944;28.562;77.188;2023-01-24T00:42:09;196.40;;;128.17;;
26201;SDS011;13944;28.562;77.188;2023-01-24T00:44:36;194.10;;;128.63;;
26201;SDS011;13944;28.562;77.188;2023-01-24T00:47:02;188.93;;;124.53;;
26201;SDS011;13944;28.562;77.188;2023-01-24T00:49:29;192.33;;;123.03;;
26201;SDS011;13944;28.562;77.188;2023-01-24T00:51:55;174.23;;;115.70;;
26201;SDS011;13944;28.562;77.188;2023-01-24T00:54:22;163.70;;;111.30;;
26201;SDS011;13944;28.562;77.188;2023-01-24T00:56:49;163.93;;;103.83;;
26201;SDS011;13944;28.562;77.188;2023-01-24T00:59:15;150.00;;;98.50;;
26201;SDS011;13944;28.562;77.188;2023-01-24T01:01:42;149.97;;;96.80;;
26201;SDS011;13944;28.562;77.188;2023-01-24T01:04:08;146.83;;;96.10;;
26201;SDS011;13944;28.562;77.188;2023-01-24T01:06:35;143.93;;;92.67;;
26201;SDS011;13944;28.562;77.188;2023-01-24T01:09:01;135.17;;;89.70;;
26201;SDS011;13944;28.562;77.188;2023-01-24T01:11:28;137.13;;;90.47;;
26201;SDS011;13944;28.562;77.188;2023-01-24T01:13:55;140.90;;;91.57;;
26201;SDS011;13944;28.562;77.188;2023-01-24T01:16:22;144.13;;;93.03;;
26201;SDS011;13944;28.562;77.188;2023-01-24T01:18:49;140.97;;;93.07;;
26201;SDS011;13944;28.562;77.188;2023-01-24T01:21:17;144.20;;;93.63;;
26201;SDS011;13944;28.562;77.188;2023-01-24T01:23:44;154.90;;;95.60;;
26201;SDS011;13944;28.562;77.188;2023-01-24T01:26:15;155.10;;;94.47;;
26201;SDS011;13944;28.562;77.188;2023-01-24T01:28:42;149.77;;;96.57;;
26201;SDS011;13944;28.562;77.188;2023-01-24T01:31:08;146.40;;;92.83;;
26201;SDS011;13944;28.562;77.188;2023-01-24T01:33:35;144.33;;;94.83;;
26201;SDS011;13944;28.562;77.188;2023-01-24T01:36:01;147.90;;;95.53;;
26201;SDS011;13944;28.562;77.188;2023-01-24T01:38:28;152.40;;;94.17;;
26201;SDS011;13944;28.562;77.188;2023-01-24T01:40:55;225.57;;;98.13;;
26201;SDS011;13944;28.562;77.188;2023-01-24T01:43:23;173.40;;;92.30;;
26201;SDS011;13944;28.562;77.188;2023-01-24T01:45:50;199.73;;;94.80;;
26201;SDS011;13944;28.562;77.188;2023-01-24T01:50:45;150.17;;;88.53;;
26201;SDS011;13944;28.562;77.188;2023-01-24T01:53:13;140.43;;;85.73;;
26201;SDS011;13944;28.562;77.188;2023-01-24T01:55:41;135.07;;;87.40;;
26201;SDS011;13944;28.562;77.188;2023-01-24T01:58:10;131.87;;;80.80;;
26201;SDS011;13944;28.562;77.188;2023-01-24T02:00:36;131.10;;;79.97;;
26201;SDS011;13944;28.562;77.188;2023-01-24T02:03:08;122.10;;;74.23;;
26201;SDS011;13944;28.562;77.188;2023-01-24T02:05:53;123.90;;;71.43;;
26201;SDS011;13944;28.562;77.188;2023-01-24T02:08:21;118.40;;;66.00;;
26201;SDS011;13944;28.562;77.188;2023-01-24T02:10:48;118.40;;;65.40;;
26201;SDS011;13944;28.562;77.188;2023-01-24T02:13:34;102.23;;;62.17;;
26201;SDS011;13944;28.562;77.188;2023-01-24T02:16:04;107.80;;;61.90;;
26201;SDS011;13944;28.562;77.188;2023-01-24T02:18:35;94.13;;;58.47;;
26201;SDS011;13944;28.562;77.188;2023-01-24T02:21:09;94.10;;;57.60;;
26201;SDS011;13944;28.562;77.188;2023-01-24T02:26:13;83.17;;;53.10;;
26201;SDS011;13944;28.562;77.188;2023-01-24T02:28:42;80.53;;;50.40;;
26201;SDS011;13944;28.562;77.188;2023-01-24T02:31:10;84.63;;;52.80;;
26201;SDS011;13944;28.562;77.188;2023-01-24T02:33:36;75.70;;;50.63;;
26201;SDS011;13944;28.562;77.188;2023-01-24T02:38:29;80.30;;;51.10;;
26201;SDS011;13944;28.562;77.188;2023-01-24T02:40:57;80.27;;;51.30;;
26201;SDS011;13944;28.562;77.188;2023-01-24T02:43:33;79.17;;;49.90;;
26201;SDS011;13944;28.562;77.188;2023-01-24T02:46:03;75.37;;;49.53;;
26201;SDS011;13944;28.562;77.188;2023-01-24T02:48:30;78.70;;;51.43;;
26201;SDS011;13944;28.562;77.188;2023-01-24T02:50:56;73.10;;;48.47;;
26201;SDS011;13944;28.562;77.188;2023-01-24T02:53:42;76.20;;;47.50;;
26201;SDS011;13944;28.562;77.188;2023-01-24T02:56:08;68.60;;;44.97;;
26201;SDS011;13944;28.562;77.188;2023-01-24T02:58:54;78.33;;;46.27;;
26201;SDS011;13944;28.562;77.188;2023-01-24T03:01:21;66.33;;;44.37;;
26201;SDS011;13944;28.562;77.188;2023-01-24T03:03:48;73.30;;;46.10;;
26201;SDS011;13944;28.562;77.188;2023-01-24T03:06:15;70.53;;;45.73;;
26201;SDS011;13944;28.562;77.188;2023-01-24T03:08:42;61.80;;;41.33;;
26201;SDS011;13944;28.562;77.188;2023-01-24T03:11:09;63.67;;;42.03;;
26201;SDS011;13944;28.562;77.188;2023-01-24T03:13:37;60.63;;;41.53;;
26201;SDS011;13944;28.562;77.188;2023-01-24T03:16:22;73.57;;;46.30;;
26201;SDS011;13944;28.562;77.188;2023-01-24T03:19:07;71.87;;;49.70;;
26201;SDS011;13944;28.562;77.188;2023-01-24T03:21:52;68.70;;;49.07;;
26201;SDS011;13944;28.562;77.188;2023-01-24T03:24:37;74.37;;;52.23;;
26201;SDS011;13944;28.562;77.188;2023-01-24T03:27:22;70.80;;;50.07;;
26201;SDS011;13944;28.562;77.188;2023-01-24T03:30:08;73.00;;;48.50;;
26201;SDS011;13944;28.562;77.188;2023-01-24T03:32:57;72.20;;;48.40;;
26201;SDS011;13944;28.562;77.188;2023-01-24T03:35:42;67.60;;;45.50;;
26201;SDS011;13944;28.562;77.188;2023-01-24T03:38:19;67.07;;;42.40;;
26201;SDS011;13944;28.562;77.188;2023-01-24T03:41:03;61.40;;;41.63;;
26201;SDS011;13944;28.562;77.188;2023-01-24T03:43:30;69.67;;;43.73;;
26201;SDS011;13944;28.562;77.188;2023-01-24T03:45:57;62.60;;;44.77;;
26201;SDS011;13944;28.562;77.188;2023-01-24T03:48:24;64.17;;;41.03;;
26201;SDS011;13944;28.562;77.188;2023-01-24T03:50:59;57.23;;;36.53;;
26201;SDS011;13944;28.562;77.188;2023-01-24T03:53:44;71.87;;;39.57;;
26201;SDS011;13944;28.562;77.188;2023-01-24T03:56:10;65.47;;;38.93;;
26201;SDS011;13944;28.562;77.188;2023-01-24T03:58:37;53.97;;;36.27;;
26201;SDS011;13944;28.562;77.188;2023-01-24T04:01:04;53.63;;;33.73;;
26201;SDS011;13944;28.562;77.188;2023-01-24T04:03:30;52.33;;;33.90;;
26201;SDS011;13944;28.562;77.188;2023-01-24T04:05:57;57.90;;;33.67;;
26201;SDS011;13944;28.562;77.188;2023-01-24T04:08:24;53.50;;;32.33;;
26201;SDS011;13944;28.562;77.188;2023-01-24T04:10:51;55.73;;;31.43;;
26201;SDS011;13944;28.562;77.188;2023-01-24T04:13:17;49.83;;;31.53;;
26201;SDS011;13944;28.562;77.188;2023-01-24T04:15:44;50.77;;;29.77;;
26201;SDS011;13944;28.562;77.188;2023-01-24T04:18:10;50.80;;;30.80;;
26201;SDS011;13944;28.562;77.188;2023-01-24T04:20:37;49.87;;;30.70;;
26201;SDS011;13944;28.562;77.188;2023-01-24T04:23:06;47.97;;;30.50;;
26201;SDS011;13944;28.562;77.188;2023-01-24T04:25:33;48.83;;;31.07;;
26201;SDS011;13944;28.562;77.188;2023-01-24T04:28:00;49.30;;;29.40;;
26201;SDS011;13944;28.562;77.188;2023-01-24T04:30:27;58.07;;;33.27;;
26201;SDS011;13944;28.562;77.188;2023-01-24T04:32:53;52.53;;;30.70;;
26201;SDS011;13944;28.562;77.188;2023-01-24T04:35:21;48.73;;;29.80;;
26201;SDS011;13944;28.562;77.188;2023-01-24T04:37:48;47.37;;;31.93;;
26201;SDS011;13944;28.562;77.188;2023-01-24T04:40:15;46.87;;;29.67;;
26201;SDS011;13944;28.562;77.188;2023-01-24T04:42:41;57.53;;;35.63;;
26201;SDS011;13944;28.562;77.188;2023-01-24T04:45:08;51.40;;;33.60;;
26201;SDS011;13944;28.562;77.188;2023-01-24T04:47:35;54.27;;;32.90;;
26201;SDS011;13944;28.562;77.188;2023-01-24T04:50:01;59.57;;;36.60;;
26201;SDS011;13944;28.562;77.188;2023-01-24T04:52:28;60.80;;;36.93;;
26201;SDS011;13944;28.562;77.188;2023-01-24T04:54:56;65.00;;;42.00;;
26201;SDS011;13944;28.562;77.188;2023-01-24T04:57:23;61.27;;;40.23;;
26201;SDS011;13944;28.562;77.188;2023-01-24T04:59:49;75.50;;;46.73;;
26201;SDS011;13944;28.562;77.188;2023-01-24T05:02:16;70.13;;;47.73;;
26201;SDS011;13944;28.562;77.188;2023-01-24T05:04:42;71.03;;;48.20;;
26201;SDS011;13944;28.562;77.188;2023-01-24T05:07:09;65.87;;;43.97;;
26201;SDS011;13944;28.562;77.188;2023-01-24T05:09:36;62.13;;;40.23;;
26201;SDS011;13944;28.562;77.188;2023-01-24T05:12:02;66.90;;;41.13;;
26201;SDS011;13944;28.562;77.188;2023-01-24T05:14:29;54.43;;;32.23;;
26201;SDS011;13944;28.562;77.188;2023-01-24T05:16:55;50.73;;;32.43;;
26201;SDS011;13944;28.562;77.188;2023-01-24T05:19:22;54.40;;;31.80;;
26201;SDS011;13944;28.562;77.188;2023-01-24T05:21:48;46.83;;;29.27;;
26201;SDS011;13944;28.562;77.188;2023-01-24T05:24:15;56.37;;;32.47;;
26201;SDS011;13944;28.562;77.188;2023-01-24T05:26:43;50.30;;;30.17;;
26201;SDS011;13944;28.562;77.188;2023-01-24T05:29:10;46.73;;;29.27;;
26201;SDS011;13944;28.562;77.188;2023-01-24T05:31:36;42.20;;;27.17;;
26201;SDS011;13944;28.562;77.188;2023-01-24T05:34:03;48.40;;;30.70;;
26201;SDS011;13944;28.562;77.188;2023-01-24T05:36:30;46.93;;;30.20;;
26201;SDS011;13944;28.562;77.188;2023-01-24T05:38:57;54.40;;;28.57;;
26201;SDS011;13944;28.562;77.188;2023-01-24T05:41:23;62.57;;;30.67;;
26201;SDS011;13944;28.562;77.188;2023-01-24T05:43:50;48.37;;;27.67;;
26201;SDS011;13944;28.562;77.188;2023-01-24T05:46:18;44.87;;;25.70;;
26201;SDS011;13944;28.562;77.188;2023-01-24T05:48:45;46.50;;;26.77;;
26201;SDS011;13944;28.562;77.188;2023-01-24T05:51:13;44.33;;;25.47;;
26201;SDS011;13944;28.562;77.188;2023-01-24T05:53:40;41.13;;;25.53;;
26201;SDS011;13944;28.562;77.188;2023-01-24T05:56:09;51.60;;;31.93;;
26201;SDS011;13944;28.562;77.188;2023-01-24T05:58:38;52.73;;;33.13;;
26201;SDS011;13944;28.562;77.188;2023-01-24T06:01:08;55.90;;;36.80;;
26201;SDS011;13944;28.562;77.188;2023-01-24T06:03:39;55.73;;;36.13;;
26201;SDS011;13944;28.562;77.188;2023-01-24T06:06:06;54.63;;;35.27;;
26201;SDS011;13944;28.562;77.188;2023-01-24T06:08:33;45.83;;;29.30;;
26201;SDS011;13944;28.562;77.188;2023-01-24T06:11:07;61.43;;;36.43;;
26201;SDS011;13944;28.562;77.188;2023-01-24T06:13:35;59.93;;;33.60;;
26201;SDS011;13944;28.562;77.188;2023-01-24T06:16:15;57.57;;;37.27;;
26201;SDS011;13944;28.562;77.188;2023-01-24T06:18:42;54.97;;;37.27;;
26201;SDS011;13944;28.562;77.188;2023-01-24T06:23:45;59.47;;;36.47;;
26201;SDS011;13944;28.562;77.188;2023-01-24T06:26:12;57.37;;;37.53;;
26201;SDS011;13944;28.562;77.188;2023-01-24T06:28:39;58.27;;;40.97;;
26201;SDS011;13944;28.562;77.188;2023-01-24T06:39:38;56.47;;;38.33;;
26201;SDS011;13944;28.562;77.188;2023-01-24T06:42:05;54.50;;;36.97;;
26201;SDS011;13944;28.562;77.188;2023-01-24T06:44:32;59.10;;;36.83;;
26201;SDS011;13944;28.562;77.188;2023-01-24T06:46:58;58.50;;;35.63;;
26201;SDS011;13944;28.562;77.188;2023-01-24T06:49:25;49.67;;;33.83;;
26201;SDS011;13944;28.562;77.188;2023-01-24T06:51:52;59.40;;;37.53;;
26201;SDS011;13944;28.562;77.188;2023-01-24T06:54:19;51.83;;;33.77;;
26201;SDS011;13944;28.562;77.188;2023-01-24T06:56:45;52.60;;;33.77;;
26201;SDS011;13944;28.562;77.188;2023-01-24T06:59:12;48.17;;;32.33;;
26201;SDS011;13944;28.562;77.188;2023-01-24T07:01:38;49.33;;;30.10;;
26201;SDS011;13944;28.562;77.188;2023-01-24T07:04:05;44.83;;;28.60;;
26201;SDS011;13944;28.562;77.188;2023-01-24T07:06:32;45.00;;;25.90;;
26201;SDS011;13944;28.562;77.188;2023-01-24T07:08:58;48.63;;;27.23;;
26201;SDS011;13944;28.562;77.188;2023-01-24T07:11:25;45.33;;;28.07;;
26201;SDS011;13944;28.562;77.188;2023-01-24T07:13:51;42.17;;;26.53;;
26201;SDS011;13944;28.562;77.188;2023-01-24T07:16:18;45.10;;;27.30;;
26201;SDS011;13944;28.562;77.188;2023-01-24T07:18:44;40.10;;;24.97;;
26201;SDS011;13944;28.562;77.188;2023-01-24T07:21:11;43.87;;;25.33;;
26201;SDS011;13944;28.562;77.188;2023-01-24T07:23:38;49.57;;;26.27;;
26201;SDS011;13944;28.562;77.188;2023-01-24T07:26:07;46.83;;;25.87;;
26201;SDS011;13944;28.562;77.188;2023-01-24T07:28:36;39.33;;;25.00;;
26201;SDS011;13944;28.562;77.188;2023-01-24T07:31:03;37.87;;;24.93;;
26201;SDS011;13944;28.562;77.188;2023-01-24T07:33:30;43.07;;;27.70;;
26201;SDS011;13944;28.562;77.188;2023-01-24T07:35:56;44.20;;;28.70;;
26201;SDS011;13944;28.562;77.188;2023-01-24T07:38:23;42.80;;;27.47;;
26201;SDS011;13944;28.562;77.188;2023-01-24T07:40:50;42.53;;;25.70;;
26201;SDS011;13944;28.562;77.188;2023-01-24T07:43:17;46.17;;;28.20;;
26201;SDS011;13944;28.562;77.188;2023-01-24T07:45:45;48.07;;;29.37;;
26201;SDS011;13944;28.562;77.188;2023-01-24T07:48:12;51.10;;;31.73;;
26201;SDS011;13944;28.562;77.188;2023-01-24T07:50:38;49.00;;;30.90;;
26201;SDS011;13944;28.562;77.188;2023-01-24T07:53:05;45.33;;;29.43;;
26201;SDS011;13944;28.562;77.188;2023-01-24T07:55:31;48.80;;;29.70;;
26201;SDS011;13944;28.562;77.188;2023-01-24T07:57:59;58.23;;;29.57;;
26201;SDS011;13944;28.562;77.188;2023-01-24T08:00:26;50.37;;;29.03;;
26201;SDS011;13944;28.562;77.188;2023-01-24T08:02:53;49.07;;;29.07;;
26201;SDS011;13944;28.562;77.188;2023-01-24T08:05:19;44.67;;;27.73;;
26201;SDS011;13944;28.562;77.188;2023-01-24T08:07:46;44.63;;;28.03;;
26201;SDS011;13944;28.562;77.188;2023-01-24T08:10:12;42.27;;;27.70;;
26201;SDS011;13944;28.562;77.188;2023-01-24T08:12:39;40.67;;;25.13;;
26201;SDS011;13944;28.562;77.188;2023-01-24T08:15:06;42.70;;;27.90;;
26201;SDS011;13944;28.562;77.188;2023-01-24T08:17:37;39.67;;;23.63;;
26201;SDS011;13944;28.562;77.188;2023-01-24T08:20:05;36.40;;;23.60;;
26201;SDS011;13944;28.562;77.188;2023-01-24T08:22:32;39.50;;;25.97;;
26201;SDS011;13944;28.562;77.188;2023-01-24T08:24:58;44.90;;;25.87;;
26201;SDS011;13944;28.562;77.188;2023-01-24T08:27:25;42.83;;;24.83;;
26201;SDS011;13944;28.562;77.188;2023-01-24T08:29:52;39.00;;;23.70;;
26201;SDS011;13944;28.562;77.188;2023-01-24T08:32:19;41.33;;;25.83;;
26201;SDS011;13944;28.562;77.188;2023-01-24T08:34:46;37.93;;;24.57;;
26201;SDS011;13944;28.562;77.188;2023-01-24T08:37:12;47.63;;;28.17;;
26201;SDS011;13944;28.562;77.188;2023-01-24T08:39:39;48.03;;;29.90;;
26201;SDS011;13944;28.562;77.188;2023-01-24T08:42:05;49.40;;;31.27;;
26201;SDS011;13944;28.562;77.188;2023-01-24T08:44:32;47.20;;;29.53;;
26201;SDS011;13944;28.562;77.188;2023-01-24T08:46:59;50.77;;;31.20;;
26201;SDS011;13944;28.562;77.188;2023-01-24T08:49:26;46.17;;;28.43;;
26201;SDS011;13944;28.562;77.188;2023-01-24T08:51:52;49.00;;;30.17;;
26201;SDS011;13944;28.562;77.188;2023-01-24T08:54:27;49.60;;;31.90;;
26201;SDS011;13944;28.562;77.188;2023-01-24T08:56:54;59.10;;;35.33;;
26201;SDS011;13944;28.562;77.188;2023-01-24T08:59:21;49.67;;;31.80;;
26201;SDS011;13944;28.562;77.188;2023-01-24T09:01:48;49.23;;;30.80;;
26201;SDS011;13944;28.562;77.188;2023-01-24T09:04:14;41.37;;;27.07;;
26201;SDS011;13944;28.562;77.188;2023-01-24T09:06:41;40.07;;;26.77;;
26201;SDS011;13944;28.562;77.188;2023-01-24T09:09:08;40.50;;;27.53;;
26201;SDS011;13944;28.562;77.188;2023-01-24T09:11:35;43.40;;;27.50;;
26201;SDS011;13944;28.562;77.188;2023-01-24T09:14:22;42.03;;;27.07;;
26201;SDS011;13944;28.562;77.188;2023-01-24T09:16:48;53.03;;;31.43;;
26201;SDS011;13944;28.562;77.188;2023-01-24T09:19:15;51.13;;;30.90;;
26201;SDS011;13944;28.562;77.188;2023-01-24T09:21:42;51.87;;;33.13;;
26201;SDS011;13944;28.562;77.188;2023-01-24T09:24:10;53.83;;;33.07;;
26201;SDS011;13944;28.562;77.188;2023-01-24T09:26:37;54.57;;;32.43;;
26201;SDS011;13944;28.562;77.188;2023-01-24T09:29:04;51.77;;;33.17;;
26201;SDS011;13944;28.562;77.188;2023-01-24T09:31:31;52.43;;;33.13;;
26201;SDS011;13944;28.562;77.188;2023-01-24T09:33:58;51.70;;;32.63;;
26201;SDS011;13944;28.562;77.188;2023-01-24T09:36:25;54.47;;;34.67;;
26201;SDS011;13944;28.562;77.188;2023-01-24T09:38:51;54.73;;;34.60;;
26201;SDS011;13944;28.562;77.188;2023-01-24T09:43:53;49.10;;;31.27;;
26201;SDS011;13944;28.562;77.188;2023-01-24T09:51:34;56.87;;;35.33;;
26201;SDS011;13944;28.562;77.188;2023-01-24T09:54:04;56.43;;;35.57;;
26201;SDS011;13944;28.562;77.188;2023-01-24T09:56:36;59.97;;;34.97;;
26201;SDS011;13944;28.562;77.188;2023-01-24T09:59:10;48.53;;;31.40;;
26201;SDS011;13944;28.562;77.188;2023-01-24T10:01:41;47.00;;;29.27;;
26201;SDS011;13944;28.562;77.188;2023-01-24T10:04:41;46.37;;;28.03;;
26201;SDS011;13944;28.562;77.188;2023-01-24T10:14:59;49.30;;;30.60;;
26201;SDS011;13944;28.562;77.188;2023-01-24T10:20:27;44.97;;;27.20;;
26201;SDS011;13944;28.562;77.188;2023-01-24T10:23:05;43.37;;;27.60;;
26201;SDS011;13944;28.562;77.188;2023-01-24T10:28:28;47.73;;;27.47;;
26201;SDS011;13944;28.562;77.188;2023-01-24T10:30:56;42.80;;;28.27;;
26201;SDS011;13944;28.562;77.188;2023-01-24T10:33:26;48.03;;;29.33;;
26201;SDS011;13944;28.562;77.188;2023-01-24T10:35:58;47.50;;;27.93;;
26201;SDS011;13944;28.562;77.188;2023-01-24T10:38:26;41.87;;;26.00;;
26201;SDS011;13944;28.562;77.188;2023-01-24T10:40:55;51.00;;;29.70;;
26201;SDS011;13944;28.562;77.188;2023-01-24T10:43:26;46.57;;;29.30;;
26201;SDS011;13944;28.562;77.188;2023-01-24T10:51:15;48.70;;;29.97;;
26201;SDS011;13944;28.562;77.188;2023-01-24T10:53:42;50.20;;;28.10;;
26201;SDS011;13944;28.562;77.188;2023-01-24T10:56:09;41.97;;;27.97;;
26201;SDS011;13944;28.562;77.188;2023-01-24T10:58:43;47.77;;;29.47;;
26201;SDS011;13944;28.562;77.188;2023-01-24T11:01:19;37.50;;;24.83;;
26201;SDS011;13944;28.562;77.188;2023-01-24T11:03:47;39.17;;;26.10;;
26201;SDS011;13944;28.562;77.188;2023-01-24T11:06:34;40.73;;;25.43;;
26201;SDS011;13944;28.562;77.188;2023-01-24T11:09:16;42.30;;;27.27;;
26201;SDS011;13944;28.562;77.188;2023-01-24T11:11:54;48.57;;;28.93;;
26201;SDS011;13944;28.562;77.188;2023-01-24T11:14:27;46.80;;;28.43;;
26201;SDS011;13944;28.562;77.188;2023-01-24T11:16:54;43.87;;;25.90;;
26201;SDS011;13944;28.562;77.188;2023-01-24T11:21:52;37.40;;;25.37;;
26201;SDS011;13944;28.562;77.188;2023-01-24T11:24:19;36.70;;;23.97;;
26201;SDS011;13944;28.562;77.188;2023-01-24T11:26:51;41.57;;;26.57;;
26201;SDS011;13944;28.562;77.188;2023-01-24T11:29:19;39.73;;;27.03;;
26201;SDS011;13944;28.562;77.188;2023-01-24T11:31:50;39.77;;;26.00;;
26201;SDS011;13944;28.562;77.188;2023-01-24T11:34:22;36.80;;;24.07;;
26201;SDS011;13944;28.562;77.188;2023-01-24T11:44:39;44.43;;;26.83;;
26201;SDS011;13944;28.562;77.188;2023-01-24T11:54:43;45.87;;;28.37;;
26201;SDS011;13944;28.562;77.188;2023-01-24T11:57:31;45.27;;;29.43;;
26201;SDS011;13944;28.562;77.188;2023-01-24T12:00:03;45.43;;;29.00;;
26201;SDS011;13944;28.562;77.188;2023-01-24T12:02:38;46.92;;;31.90;;
26201;SDS011;13944;28.562;77.188;2023-01-24T12:05:23;54.27;;;33.07;;
26201;SDS011;13944;28.562;77.188;2023-01-24T12:08:01;55.77;;;33.90;;
26201;SDS011;13944;28.562;77.188;2023-01-24T12:13:25;55.20;;;34.77;;
26201;SDS011;13944;28.562;77.188;2023-01-24T12:16:01;54.30;;;33.90;;
26201;SDS011;13944;28.562;77.188;2023-01-24T12:18:34;54.33;;;33.77;;
26201;SDS011;13944;28.562;77.188;2023-01-24T12:21:08;58.63;;;34.87;;
26201;SDS011;13944;28.562;77.188;2023-01-24T12:23:41;57.73;;;35.07;;
26201;SDS011;13944;28.562;77.188;2023-01-24T12:26:10;58.43;;;34.57;;
26201;SDS011;13944;28.562;77.188;2023-01-24T12:28:55;58.93;;;35.10;;
26201;SDS011;13944;28.562;77.188;2023-01-24T12:31:30;61.10;;;35.77;;
26201;SDS011;13944;28.562;77.188;2023-01-24T12:37:10;64.17;;;35.53;;
26201;SDS011;13944;28.562;77.188;2023-01-24T12:39:46;57.60;;;35.53;;
26201;SDS011;13944;28.562;77.188;2023-01-24T12:42:17;64.37;;;34.97;;
26201;SDS011;13944;28.562;77.188;2023-01-24T12:44:47;58.73;;;35.17;;
26201;SDS011;13944;28.562;77.188;2023-01-24T12:47:27;66.27;;;37.30;;
26201;SDS011;13944;28.562;77.188;2023-01-24T12:50:00;55.53;;;36.37;;
26201;SDS011;13944;28.562;77.188;2023-01-24T12:52:32;59.73;;;36.17;;
26201;SDS011;13944;28.562;77.188;2023-01-24T12:55:14;61.13;;;37.40;;
26201;SDS011;13944;28.562;77.188;2023-01-24T13:00:13;58.57;;;36.67;;
26201;SDS011;13944;28.562;77.188;2023-01-24T13:13:34;71.00;;;39.97;;
26201;SDS011;13944;28.562;77.188;2023-01-24T13:21:33;60.87;;;40.03;;
26201;SDS011;13944;28.562;77.188;2023-01-24T13:27:22;75.27;;;39.00;;
26201;SDS011;13944;28.562;77.188;2023-01-24T13:29:56;68.33;;;40.57;;
26201;SDS011;13944;28.562;77.188;2023-01-24T13:32:26;68.00;;;40.23;;
26201;SDS011;13944;28.562;77.188;2023-01-24T13:34:54;74.53;;;40.90;;
26201;SDS011;13944;28.562;77.188;2023-01-24T13:37:22;71.47;;;42.00;;
26201;SDS011;13944;28.562;77.188;2023-01-24T13:39:58;64.93;;;41.77;;
26201;SDS011;13944;28.562;77.188;2023-01-24T13:42:33;73.30;;;40.10;;
26201;SDS011;13944;28.562;77.188;2023-01-24T13:45:39;67.80;;;41.77;;
26201;SDS011;13944;28.562;77.188;2023-01-24T13:47:46;62.03;;;40.70;;
26201;SDS011;13944;28.562;77.188;2023-01-24T13:50:14;68.73;;;42.27;;
26201;SDS011;13944;28.562;77.188;2023-01-24T13:52:43;68.00;;;42.57;;
26201;SDS011;13944;28.562;77.188;2023-01-24T13:57:40;71.60;;;41.77;;
26201;SDS011;13944;28.562;77.188;2023-01-24T14:02:36;75.37;;;44.70;;
26201;SDS011;13944;28.562;77.188;2023-01-24T14:07:50;69.77;;;44.60;;
26201;SDS011;13944;28.562;77.188;2023-01-24T14:10:16;76.53;;;45.50;;
26201;SDS011;13944;28.562;77.188;2023-01-24T14:12:51;81.00;;;46.10;;
26201;SDS011;13944;28.562;77.188;2023-01-24T14:17:48;73.63;;;46.40;;
26201;SDS011;13944;28.562;77.188;2023-01-24T14:20:19;84.17;;;48.03;;
26201;SDS011;13944;28.562;77.188;2023-01-24T14:22:47;72.60;;;46.00;;
26201;SDS011;13944;28.562;77.188;2023-01-24T14:28:28;74.33;;;47.43;;
26201;SDS011;13944;28.562;77.188;2023-01-24T14:30:54;73.43;;;45.53;;
26201;SDS011;13944;28.562;77.188;2023-01-24T14:36:31;73.80;;;47.13;;
26201;SDS011;13944;28.562;77.188;2023-01-24T14:38:38;77.70;;;47.73;;
26201;SDS011;13944;28.562;77.188;2023-01-24T14:41:04;79.33;;;49.00;;
26201;SDS011;13944;28.562;77.188;2023-01-24T14:43:37;78.80;;;50.30;;
26201;SDS011;13944;28.562;77.188;2023-01-24T14:46:10;83.13;;;50.10;;
26201;SDS011;13944;28.562;77.188;2023-01-24T14:48:37;77.80;;;49.47;;
26201;SDS011;13944;28.562;77.188;2023-01-24T14:51:05;82.50;;;50.47;;
26201;SDS011;13944;28.562;77.188;2023-01-24T14:53:32;78.27;;;48.67;;
26201;SDS011;13944;28.562;77.188;2023-01-24T14:56:01;80.17;;;52.47;;
26201;SDS011;13944;28.562;77.188;2023-01-24T14:58:28;83.90;;;53.67;;
26201;SDS011;13944;28.562;77.188;2023-01-24T15:00:56;85.57;;;52.53;;
26201;SDS011;13944;28.562;77.188;2023-01-24T15:03:24;78.67;;;51.27;;
26201;SDS011;13944;28.562;77.188;2023-01-24T15:08:20;81.57;;;55.37;;
26201;SDS011;13944;28.562;77.188;2023-01-24T15:11:17;89.33;;;57.00;;
26201;SDS011;13944;28.562;77.188;2023-01-24T15:13:54;88.10;;;55.17;;
26201;SDS011;13944;28.562;77.188;2023-01-24T15:16:22;82.67;;;54.87;;
26201;SDS011;13944;28.562;77.188;2023-01-24T15:18:50;86.00;;;57.60;;
26201;SDS011;13944;28.562;77.188;2023-01-24T15:21:23;93.53;;;58.50;;
26201;SDS011;13944;28.562;77.188;2023-01-24T15:23:52;94.90;;;60.20;;
26201;SDS011;13944;28.562;77.188;2023-01-24T15:26:20;91.20;;;61.20;;
26201;SDS011;13944;28.562;77.188;2023-01-24T15:28:47;92.93;;;62.27;;
26201;SDS011;13944;28.562;77.188;2023-01-24T15:31:18;98.47;;;61.77;;
26201;SDS011;13944;28.562;77.188;2023-01-24T15:33:45;92.83;;;59.83;;
26201;SDS011;13944;28.562;77.188;2023-01-24T15:36:22;95.80;;;61.73;;
26201;SDS011;13944;28.562;77.188;2023-01-24T15:38:50;97.03;;;61.60;;
26201;SDS011;13944;28.562;77.188;2023-01-24T15:41:19;89.13;;;60.53;;
26201;SDS011;13944;28.562;77.188;2023-01-24T15:46:52;86.50;;;58.43;;
26201;SDS011;13944;28.562;77.188;2023-01-24T15:52:14;85.30;;;57.07;;
26201;SDS011;13944;28.562;77.188;2023-01-24T15:54:45;85.07;;;55.60;;
26201;SDS011;13944;28.562;77.188;2023-01-24T15:57:36;83.57;;;54.97;;
26201;SDS011;13944;28.562;77.188;2023-01-24T16:02:37;85.47;;;54.70;;
26201;SDS011;13944;28.562;77.188;2023-01-24T16:05:11;83.77;;;54.93;;
26201;SDS011;13944;28.562;77.188;2023-01-24T16:07:37;79.07;;;53.00;;
26201;SDS011;13944;28.562;77.188;2023-01-24T16:10:04;84.03;;;53.67;;
26201;SDS011;13944;28.562;77.188;2023-01-24T16:12:31;82.07;;;52.63;;
26201;SDS011;13944;28.562;77.188;2023-01-24T16:14:59;90.40;;;55.03;;
26201;SDS011;13944;28.562;77.188;2023-01-24T16:17:26;84.80;;;53.73;;